createdAt,value
2018-08-17T00:00:05.409Z,0
2018-08-17T00:01:14.980Z,0
2018-08-17T00:02:24.289Z,0
2018-08-17T00:03:34.124Z,0
2018-08-17T00:04:43.976Z,0
2018-08-17T00:05:53.831Z,0
2018-08-17T00:07:03.943Z,0
2018-08-17T00:08:13.784Z,0
2018-08-17T00:09:23.359Z,0
2018-08-17T00:10:32.930Z,0
2018-08-17T00:11:42.507Z,0
2018-08-17T00:12:52.626Z,0
2018-08-17T00:14:01.929Z,0
2018-08-17T00:15:11.774Z,0
2018-08-17T00:16:21.931Z,0
2018-08-17T00:17:31.508Z,0
2018-08-17T00:18:40.812Z,0
2018-08-17T00:19:50.391Z,0
2018-08-17T00:21:00.249Z,0
2018-08-17T00:22:09.877Z,0
2018-08-17T00:23:19.448Z,0
2018-08-17T00:24:29.300Z,0
2018-08-17T00:25:39.409Z,0
2018-08-17T00:26:49.250Z,0
2018-08-17T00:27:59.102Z,0
2018-08-17T00:29:08.677Z,0
2018-08-17T00:30:17.988Z,0
2018-08-17T00:31:27.853Z,0
2018-08-17T00:32:37.401Z,0
2018-08-17T00:33:47.027Z,0
2018-08-17T00:34:56.605Z,0
2018-08-17T00:36:06.181Z,0
2018-08-17T00:37:16.294Z,0
2018-08-17T00:38:25.595Z,0
2018-08-17T00:39:35.171Z,0
2018-08-17T00:40:44.471Z,0
2018-08-17T00:41:54.045Z,0
2018-08-17T00:43:04.152Z,0
2018-08-17T00:44:13.467Z,0
2018-08-17T00:45:23.313Z,0
2018-08-17T00:46:33.422Z,0
2018-08-17T00:47:42.723Z,0
2018-08-17T00:48:52.834Z,0
2018-08-17T00:50:02.743Z,0
2018-08-17T00:51:12.329Z,0
2018-08-17T00:52:21.908Z,0
2018-08-17T00:53:31.747Z,0
2018-08-17T00:54:41.316Z,0
2018-08-17T00:55:50.618Z,0
2018-08-17T00:57:00.468Z,0
2018-08-17T00:58:10.046Z,0
2018-08-17T00:59:19.347Z,0
2018-08-17T01:00:28.923Z,0
2018-08-17T01:01:38.512Z,0
2018-08-17T01:02:48.092Z,0
2018-08-17T01:03:57.667Z,0
2018-08-17T01:05:07.242Z,0
2018-08-17T01:06:16.817Z,0
2018-08-17T01:07:26.930Z,0
2018-08-17T01:08:37.047Z,0
2018-08-17T01:09:46.893Z,0
2018-08-17T01:10:56.774Z,0
2018-08-17T01:12:06.888Z,0
2018-08-17T01:13:16.470Z,0
2018-08-17T01:14:26.596Z,0
2018-08-17T01:15:36.171Z,0
2018-08-17T01:16:46.016Z,0
2018-08-17T01:17:55.588Z,0
2018-08-17T01:19:05.440Z,0
2018-08-17T01:20:15.560Z,0
2018-08-17T01:21:24.876Z,0
2018-08-17T01:22:34.443Z,0
2018-08-17T01:23:43.748Z,0
2018-08-17T01:24:53.322Z,0
2018-08-17T01:26:03.174Z,0
2018-08-17T01:27:13.017Z,0
2018-08-17T01:28:22.586Z,0
2018-08-17T01:29:32.440Z,0
2018-08-17T01:30:42.566Z,0
2018-08-17T01:31:52.132Z,0
2018-08-17T01:33:01.975Z,0
2018-08-17T01:34:11.277Z,0
2018-08-17T01:35:20.847Z,0
2018-08-17T01:36:30.970Z,0
2018-08-17T01:37:40.011Z,0
2018-08-17T01:38:49.586Z,0
2018-08-17T01:39:59.429Z,0
2018-08-17T01:41:09.543Z,0
2018-08-17T01:42:18.846Z,0
2018-08-17T01:43:28.684Z,0
2018-08-17T01:44:37.719Z,0
2018-08-17T01:45:47.025Z,0
2018-08-17T01:46:56.864Z,0
2018-08-17T01:48:06.713Z,0
2018-08-17T01:49:16.287Z,0
2018-08-17T01:50:25.595Z,0
2018-08-17T01:51:34.893Z,0
2018-08-17T01:52:44.462Z,0
2018-08-17T01:53:54.308Z,0
2018-08-17T01:55:03.891Z,0
2018-08-17T01:56:13.469Z,0
2018-08-17T01:57:23.048Z,0
2018-08-17T01:58:32.898Z,0
2018-08-17T01:59:42.467Z,0
2018-08-17T02:00:52.315Z,0
2018-08-17T02:02:02.477Z,0
2018-08-17T02:03:11.773Z,0
2018-08-17T02:04:21.619Z,0
2018-08-17T02:05:31.726Z,0
2018-08-17T02:06:41.031Z,0
2018-08-17T02:07:51.143Z,0
2018-08-17T02:09:00.989Z,0
2018-08-17T02:10:11.111Z,0
2018-08-17T02:11:20.685Z,0
2018-08-17T02:12:30.791Z,0
2018-08-17T02:13:40.364Z,0
2018-08-17T02:14:51.222Z,0
2018-08-17T02:16:01.339Z,0
2018-08-17T02:17:11.233Z,0
2018-08-17T02:18:20.537Z,0
2018-08-17T02:19:30.117Z,0
2018-08-17T02:20:39.969Z,0
2018-08-17T02:21:49.814Z,0
2018-08-17T02:22:59.978Z,0
2018-08-17T02:24:10.095Z,0
2018-08-17T02:25:19.677Z,0
2018-08-17T02:26:29.798Z,0
2018-08-17T02:27:39.923Z,0
2018-08-17T02:28:50.135Z,0
2018-08-17T02:29:59.753Z,0
2018-08-17T02:31:09.596Z,0
2018-08-17T02:32:18.903Z,0
2018-08-17T02:33:29.027Z,0
2018-08-17T02:34:38.336Z,0
2018-08-17T02:35:48.199Z,0
2018-08-17T02:36:58.378Z,0
2018-08-17T02:38:08.231Z,0
2018-08-17T02:39:17.820Z,0
2018-08-17T02:40:27.665Z,0
2018-08-17T02:41:36.972Z,0
2018-08-17T02:42:46.827Z,0
2018-08-17T02:43:56.690Z,0
2018-08-17T02:45:06.560Z,0
2018-08-17T02:46:16.408Z,0
2018-08-17T02:47:26.287Z,0
2018-08-17T02:48:35.870Z,0
2018-08-17T02:49:45.725Z,0
2018-08-17T02:50:55.585Z,0
2018-08-17T02:52:05.695Z,0
2018-08-17T02:53:15.267Z,0
2018-08-17T02:54:25.391Z,0
2018-08-17T02:55:35.243Z,0
2018-08-17T02:56:45.385Z,0
2018-08-17T02:57:55.237Z,0
2018-08-17T02:59:04.544Z,0
2018-08-17T03:00:14.141Z,0
2018-08-17T03:01:24.007Z,0
2018-08-17T03:02:34.123Z,0
2018-08-17T03:03:43.703Z,0
2018-08-17T03:04:53.550Z,0
2018-08-17T03:06:03.417Z,0
2018-08-17T03:07:13.000Z,0
2018-08-17T03:08:22.577Z,0
2018-08-17T03:09:32.434Z,0
2018-08-17T03:10:42.555Z,0
2018-08-17T03:11:51.864Z,0
2018-08-17T03:13:01.177Z,0
2018-08-17T03:14:10.766Z,0
2018-08-17T03:15:20.394Z,0
2018-08-17T03:16:29.977Z,0
2018-08-17T03:17:40.104Z,0
2018-08-17T03:18:50.228Z,0
2018-08-17T03:20:00.345Z,0
2018-08-17T03:21:09.930Z,0
2018-08-17T03:22:19.507Z,0
2018-08-17T03:23:28.542Z,0
2018-08-17T03:24:37.851Z,0
2018-08-17T03:25:47.697Z,0
2018-08-17T03:26:57.545Z,0
2018-08-17T03:28:07.385Z,0
2018-08-17T03:29:17.225Z,0
2018-08-17T03:30:27.088Z,0
2018-08-17T03:31:36.665Z,0
2018-08-17T03:32:46.243Z,0
2018-08-17T03:33:55.545Z,0
2018-08-17T03:35:05.394Z,0
2018-08-17T03:36:15.232Z,0
2018-08-17T03:37:25.847Z,0
2018-08-17T03:38:35.690Z,0
2018-08-17T03:39:45.265Z,0
2018-08-17T03:40:55.116Z,0
2018-08-17T03:42:04.690Z,0
2018-08-17T03:43:14.276Z,0
2018-08-17T03:44:23.853Z,0
2018-08-17T03:45:33.435Z,0
2018-08-17T03:46:42.738Z,0
2018-08-17T03:47:52.040Z,0
2018-08-17T03:49:01.613Z,0
2018-08-17T03:50:11.296Z,0
2018-08-17T03:51:20.870Z,0
2018-08-17T03:52:30.446Z,0
2018-08-17T03:53:40.303Z,0
2018-08-17T03:54:50.149Z,0
2018-08-17T03:56:00.266Z,0
2018-08-17T03:57:10.110Z,0
2018-08-17T03:58:19.682Z,5
2018-08-17T03:59:28.720Z,5
2018-08-17T04:00:38.291Z,5
2018-08-17T04:01:48.142Z,5
2018-08-17T04:02:57.454Z,5
2018-08-17T04:04:07.031Z,5
2018-08-17T04:05:16.604Z,5
2018-08-17T04:06:26.181Z,5
2018-08-17T04:07:36.308Z,5
2018-08-17T04:08:45.879Z,10
2018-08-17T04:09:55.461Z,10
2018-08-17T04:11:05.038Z,10
2018-08-17T04:12:14.071Z,10
2018-08-17T04:13:24.183Z,15
2018-08-17T04:14:34.033Z,15
2018-08-17T04:15:44.429Z,15
2018-08-17T04:16:54.272Z,15
2018-08-17T04:18:03.575Z,15
2018-08-17T04:19:13.203Z,20
2018-08-17T04:20:23.311Z,20
2018-08-17T04:21:32.614Z,20
2018-08-17T04:22:42.464Z,25
2018-08-17T04:23:52.542Z,25
2018-08-17T04:25:02.663Z,30
2018-08-17T04:26:11.971Z,30
2018-08-17T04:27:21.814Z,30
2018-08-17T04:28:31.394Z,30
2018-08-17T04:29:40.972Z,30
2018-08-17T04:30:50.541Z,35
2018-08-17T04:31:59.847Z,35
2018-08-17T04:33:09.699Z,40
2018-08-17T04:34:19.545Z,40
2018-08-17T04:35:29.688Z,45
2018-08-17T04:36:39.028Z,45
2018-08-17T04:37:48.602Z,45
2018-08-17T04:38:58.449Z,50
2018-08-17T04:40:08.564Z,55
2018-08-17T04:41:18.404Z,55
2018-08-17T04:42:28.244Z,55
2018-08-17T04:43:37.875Z,55
2018-08-17T04:44:47.549Z,50
2018-08-17T04:45:56.315Z,55
2018-08-17T04:47:06.433Z,55
2018-08-17T04:48:16.282Z,55
2018-08-17T04:49:26.655Z,55
2018-08-17T04:50:36.552Z,55
2018-08-17T04:51:46.671Z,55
2018-08-17T04:52:56.512Z,55
2018-08-17T04:54:05.818Z,60
2018-08-17T04:55:15.664Z,60
2018-08-17T04:56:25.312Z,65
2018-08-17T04:57:35.224Z,65
2018-08-17T04:58:44.535Z,65
2018-08-17T04:59:53.837Z,65
2018-08-17T05:01:03.139Z,65
2018-08-17T05:02:12.995Z,65
2018-08-17T05:03:22.669Z,70
2018-08-17T05:04:32.797Z,70
2018-08-17T05:05:41.826Z,75
2018-08-17T05:06:51.396Z,75
2018-08-17T05:08:00.965Z,80
2018-08-17T05:09:11.259Z,85
2018-08-17T05:10:20.565Z,90
2018-08-17T05:11:30.729Z,95
2018-08-17T05:12:40.574Z,100
2018-08-17T05:13:50.696Z,105
2018-08-17T05:15:00.267Z,105
2018-08-17T05:16:10.388Z,100
2018-08-17T05:17:20.498Z,95
2018-08-17T05:18:29.796Z,90
2018-08-17T05:19:39.925Z,90
2018-08-17T05:20:49.229Z,90
2018-08-17T05:21:58.857Z,95
2018-08-17T05:23:08.458Z,95
2018-08-17T05:24:18.017Z,100
2018-08-17T05:25:28.129Z,100
2018-08-17T05:26:37.162Z,110
2018-08-17T05:27:46.738Z,115
2018-08-17T05:28:56.320Z,130
2018-08-17T05:30:06.176Z,140
2018-08-17T05:31:16.282Z,160
2018-08-17T05:32:26.126Z,180
2018-08-17T05:33:35.697Z,200
2018-08-17T05:34:45.543Z,215
2018-08-17T05:35:55.557Z,225
2018-08-17T05:37:05.748Z,225
2018-08-17T05:38:15.323Z,210
2018-08-17T05:39:25.456Z,205
2018-08-17T05:40:35.056Z,200
2018-08-17T05:41:44.905Z,200
2018-08-17T05:42:53.995Z,195
2018-08-17T05:44:03.569Z,190
2018-08-17T05:45:14.340Z,185
2018-08-17T05:46:23.915Z,175
2018-08-17T05:47:33.778Z,165
2018-08-17T05:48:43.886Z,150
2018-08-17T05:49:53.196Z,130
2018-08-17T05:51:03.039Z,110
2018-08-17T05:52:12.343Z,105
2018-08-17T05:53:21.917Z,100
2018-08-17T05:54:31.489Z,95
2018-08-17T05:55:41.334Z,95
2018-08-17T05:56:51.139Z,100
2018-08-17T05:58:01.252Z,105
2018-08-17T05:59:11.147Z,115
2018-08-17T06:00:20.990Z,130
2018-08-17T06:01:30.577Z,140
2018-08-17T06:02:40.712Z,150
2018-08-17T06:03:50.843Z,155
2018-08-17T06:05:00.695Z,150
2018-08-17T06:06:10.003Z,140
2018-08-17T06:07:19.847Z,140
2018-08-17T06:08:29.425Z,145
2018-08-17T06:09:39.268Z,145
2018-08-17T06:10:49.267Z,145
2018-08-17T06:11:59.033Z,145
2018-08-17T06:13:08.885Z,145
2018-08-17T06:14:18.734Z,145
2018-08-17T06:15:28.320Z,145
2018-08-17T06:16:37.636Z,150
2018-08-17T06:17:47.264Z,165
2018-08-17T06:18:56.839Z,180
2018-08-17T06:20:06.685Z,185
2018-08-17T06:21:16.544Z,180
2018-08-17T06:22:26.121Z,175
2018-08-17T06:23:35.214Z,150
2018-08-17T06:24:45.331Z,135
2018-08-17T06:25:54.638Z,135
2018-08-17T06:27:04.774Z,150
2018-08-17T06:28:14.896Z,170
2018-08-17T06:29:24.470Z,195
2018-08-17T06:30:34.317Z,215
2018-08-17T06:31:44.163Z,215
2018-08-17T06:32:53.664Z,200
2018-08-17T06:34:03.516Z,190
2018-08-17T06:35:13.147Z,190
2018-08-17T06:36:23.408Z,195
2018-08-17T06:37:33.900Z,205
2018-08-17T06:38:43.218Z,215
2018-08-17T06:39:53.068Z,225
2018-08-17T06:41:02.921Z,230
2018-08-17T06:42:13.047Z,220
2018-08-17T06:43:22.627Z,205
2018-08-17T06:44:32.198Z,200
2018-08-17T06:45:42.311Z,205
2018-08-17T06:46:51.934Z,220
2018-08-17T06:48:02.057Z,225
2018-08-17T06:49:11.634Z,230
2018-08-17T06:50:20.936Z,235
2018-08-17T06:51:30.517Z,235
2018-08-17T06:52:40.626Z,235
2018-08-17T06:53:50.472Z,240
2018-08-17T06:55:00.325Z,250
2018-08-17T06:56:10.172Z,270
2018-08-17T06:57:20.928Z,300
2018-08-17T06:58:30.838Z,335
2018-08-17T06:59:39.611Z,355
2018-08-17T07:00:49.182Z,365
2018-08-17T07:01:58.750Z,375
2018-08-17T07:03:08.325Z,395
2018-08-17T07:04:18.478Z,395
2018-08-17T07:05:28.320Z,410
2018-08-17T07:06:37.626Z,425
2018-08-17T07:07:47.477Z,435
2018-08-17T07:08:57.358Z,430
2018-08-17T07:10:06.905Z,410
2018-08-17T07:11:16.756Z,375
2018-08-17T07:12:26.872Z,335
2018-08-17T07:13:36.450Z,310
2018-08-17T07:14:46.026Z,305
2018-08-17T07:15:55.665Z,300
2018-08-17T07:17:05.571Z,290
2018-08-17T07:18:15.167Z,285
2018-08-17T07:19:24.752Z,285
2018-08-17T07:20:34.595Z,285
2018-08-17T07:21:44.241Z,275
2018-08-17T07:22:54.139Z,265
2018-08-17T07:24:03.994Z,275
2018-08-17T07:25:14.125Z,305
2018-08-17T07:26:24.240Z,320
2018-08-17T07:27:34.109Z,315
2018-08-17T07:28:43.127Z,280
2018-08-17T07:29:52.970Z,235
2018-08-17T07:31:02.553Z,200
2018-08-17T07:32:12.401Z,185
2018-08-17T07:33:21.706Z,175
2018-08-17T07:34:30.738Z,170
2018-08-17T07:35:40.734Z,165
2018-08-17T07:36:50.345Z,155
2018-08-17T07:38:00.465Z,145
2018-08-17T07:39:09.832Z,135
2018-08-17T07:40:19.683Z,130
2018-08-17T07:41:29.572Z,140
2018-08-17T07:42:38.880Z,155
2018-08-17T07:43:48.996Z,170
2018-08-17T07:44:58.567Z,185
2018-08-17T07:46:08.177Z,205
2018-08-17T07:47:17.547Z,215
2018-08-17T07:48:28.096Z,220
2018-08-17T07:49:38.213Z,210
2018-08-17T07:50:48.061Z,205
2018-08-17T07:51:58.180Z,200
2018-08-17T07:53:08.042Z,195
2018-08-17T07:54:17.885Z,195
2018-08-17T07:55:27.778Z,205
2018-08-17T07:56:37.401Z,210
2018-08-17T07:57:47.515Z,205
2018-08-17T07:58:57.720Z,205
2018-08-17T08:00:07.853Z,215
2018-08-17T08:01:17.163Z,235
2018-08-17T08:02:26.793Z,265
2018-08-17T08:03:36.370Z,300
2018-08-17T08:04:46.214Z,315
2018-08-17T08:05:55.518Z,320
2018-08-17T08:07:05.371Z,310
2018-08-17T08:08:14.947Z,280
2018-08-17T08:09:25.066Z,260
2018-08-17T08:10:35.260Z,255
2018-08-17T08:11:44.573Z,255
2018-08-17T08:12:54.160Z,255
2018-08-17T08:14:03.467Z,260
2018-08-17T08:15:13.320Z,255
2018-08-17T08:16:22.901Z,220
2018-08-17T08:17:32.482Z,200
2018-08-17T08:18:41.790Z,190
2018-08-17T08:19:51.954Z,175
2018-08-17T08:21:01.801Z,150
2018-08-17T08:22:11.653Z,135
2018-08-17T08:23:21.502Z,145
2018-08-17T08:24:31.355Z,155
2018-08-17T08:25:40.932Z,165
2018-08-17T08:26:50.243Z,160
2018-08-17T08:27:59.284Z,140
2018-08-17T08:29:08.857Z,120
2018-08-17T08:30:18.978Z,100
2018-08-17T08:31:28.559Z,95
2018-08-17T08:32:39.372Z,90
2018-08-17T08:33:48.953Z,95
2018-08-17T08:34:58.800Z,110
2018-08-17T08:36:08.645Z,120
2018-08-17T08:37:18.763Z,120
2018-08-17T08:38:28.896Z,115
2018-08-17T08:39:38.199Z,110
2018-08-17T08:40:48.047Z,105
2018-08-17T08:41:58.267Z,100
2018-08-17T08:43:08.118Z,105
2018-08-17T08:44:17.694Z,105
2018-08-17T08:45:27.349Z,100
2018-08-17T08:46:36.949Z,105
2018-08-17T08:47:47.063Z,110
2018-08-17T08:48:56.923Z,120
2018-08-17T08:50:06.503Z,130
2018-08-17T08:51:16.344Z,130
2018-08-17T08:52:26.197Z,125
2018-08-17T08:53:36.309Z,120
2018-08-17T08:54:45.936Z,125
2018-08-17T08:55:55.340Z,125
2018-08-17T08:57:04.924Z,120
2018-08-17T08:58:14.497Z,115
2018-08-17T08:59:24.608Z,110
2018-08-17T09:00:34.461Z,110
2018-08-17T09:01:44.735Z,105
2018-08-17T09:02:54.895Z,110
2018-08-17T09:04:04.754Z,115
2018-08-17T09:05:14.600Z,125
2018-08-17T09:06:24.497Z,130
2018-08-17T09:07:34.383Z,140
2018-08-17T09:08:43.968Z,145
2018-08-17T09:09:53.552Z,140
2018-08-17T09:11:03.123Z,150
2018-08-17T09:12:12.701Z,155
2018-08-17T09:13:22.545Z,155
2018-08-17T09:14:32.132Z,155
2018-08-17T09:15:42.261Z,150
2018-08-17T09:16:52.377Z,145
2018-08-17T09:18:01.956Z,140
2018-08-17T09:19:12.079Z,140
2018-08-17T09:20:22.326Z,140
2018-08-17T09:21:32.224Z,145
2018-08-17T09:22:42.333Z,155
2018-08-17T09:23:52.442Z,165
2018-08-17T09:25:02.571Z,175
2018-08-17T09:26:12.148Z,190
2018-08-17T09:27:21.992Z,210
2018-08-17T09:28:32.115Z,220
2018-08-17T09:29:41.961Z,235
2018-08-17T09:30:51.805Z,255
2018-08-17T09:32:01.109Z,275
2018-08-17T09:33:10.684Z,290
2018-08-17T09:34:20.262Z,310
2018-08-17T09:35:30.104Z,325
2018-08-17T09:36:39.678Z,345
2018-08-17T09:37:48.981Z,350
2018-08-17T09:38:58.836Z,355
2018-08-17T09:40:08.461Z,360
2018-08-17T09:41:18.358Z,370
2018-08-17T09:42:28.201Z,370
2018-08-17T09:43:38.048Z,365
2018-08-17T09:44:47.093Z,365
2018-08-17T09:45:57.210Z,365
2018-08-17T09:47:06.837Z,365
2018-08-17T09:48:16.421Z,365
2018-08-17T09:49:25.723Z,400
2018-08-17T09:50:34.761Z,410
2018-08-17T09:51:44.602Z,385
2018-08-17T09:52:54.494Z,385
2018-08-17T09:54:04.608Z,440
2018-08-17T09:55:14.739Z,415
2018-08-17T09:56:24.602Z,405
2018-08-17T09:57:34.653Z,415
2018-08-17T09:58:44.511Z,415
2018-08-17T09:59:53.541Z,505
2018-08-17T10:01:03.114Z,545
2018-08-17T10:02:12.149Z,525
2018-08-17T10:03:21.459Z,535
2018-08-17T10:04:30.777Z,525
2018-08-17T10:05:40.898Z,495
2018-08-17T10:06:50.743Z,470
2018-08-17T10:08:00.867Z,495
2018-08-17T10:09:10.756Z,500
2018-08-17T10:10:20.600Z,485
2018-08-17T10:11:30.442Z,485
2018-08-17T10:12:40.290Z,500
2018-08-17T10:13:50.408Z,440
2018-08-17T10:14:59.446Z,435
2018-08-17T10:16:09.296Z,435
2018-08-17T10:17:19.144Z,410
2018-08-17T10:18:28.996Z,395
2018-08-17T10:19:38.573Z,415
2018-08-17T10:20:48.607Z,425
2018-08-17T10:22:01.233Z,415
2018-08-17T10:23:10.579Z,400
2018-08-17T10:24:20.425Z,370
2018-08-17T10:25:30.295Z,340
2018-08-17T10:26:40.411Z,335
2018-08-17T10:27:49.996Z,300
2018-08-17T10:28:59.837Z,345
2018-08-17T10:30:09.409Z,365
2018-08-17T10:31:18.712Z,370
2018-08-17T10:32:28.292Z,305
2018-08-17T10:33:37.615Z,230
2018-08-17T10:34:47.735Z,205
2018-08-17T10:35:57.317Z,210
2018-08-17T10:37:07.165Z,310
2018-08-17T10:38:16.744Z,395
2018-08-17T10:39:26.869Z,510
2018-08-17T10:40:37.029Z,575
2018-08-17T10:41:46.886Z,520
2018-08-17T10:42:56.457Z,605
2018-08-17T10:44:06.043Z,610
2018-08-17T10:45:15.888Z,640
2018-08-17T10:46:25.731Z,690
2018-08-17T10:47:35.599Z,670
2018-08-17T10:48:45.372Z,620
2018-08-17T10:49:55.288Z,550
2018-08-17T10:51:04.874Z,535
2018-08-17T10:52:14.733Z,750
2018-08-17T10:53:24.036Z,800
2018-08-17T10:54:33.893Z,960
2018-08-17T10:55:44.330Z,835
2018-08-17T10:56:54.169Z,900
2018-08-17T10:58:04.285Z,900
2018-08-17T10:59:13.920Z,815
2018-08-17T11:00:23.767Z,740
2018-08-17T11:01:33.613Z,735
2018-08-17T11:02:43.192Z,720
2018-08-17T11:03:53.304Z,715
2018-08-17T11:05:03.151Z,680
2018-08-17T11:06:12.726Z,660
2018-08-17T11:07:21.765Z,660
2018-08-17T11:08:31.341Z,670
2018-08-17T11:09:40.645Z,670
2018-08-17T11:10:49.997Z,660
2018-08-17T11:12:00.132Z,675
2018-08-17T11:13:09.711Z,700
2018-08-17T11:14:19.290Z,695
2018-08-17T11:15:28.327Z,760
2018-08-17T11:16:38.181Z,795
2018-08-17T11:17:48.027Z,685
2018-08-17T11:18:57.333Z,700
2018-08-17T11:20:07.186Z,685
2018-08-17T11:21:17.039Z,685
2018-08-17T11:22:27.154Z,670
2018-08-17T11:23:36.995Z,645
2018-08-17T11:24:47.119Z,735
2018-08-17T11:25:56.692Z,700
2018-08-17T11:27:06.544Z,790
2018-08-17T11:28:16.122Z,835
2018-08-17T11:29:25.976Z,835
2018-08-17T11:30:35.846Z,725
2018-08-17T11:31:45.692Z,725
2018-08-17T11:32:55.805Z,785
2018-08-17T11:34:05.394Z,780
2018-08-17T11:35:14.971Z,810
2018-08-17T11:36:25.088Z,875
2018-08-17T11:37:34.939Z,860
2018-08-17T11:38:44.797Z,920
2018-08-17T11:39:54.706Z,930
2018-08-17T11:41:04.840Z,930
2018-08-17T11:42:14.425Z,640
2018-08-17T11:43:23.998Z,520
2018-08-17T11:44:33.576Z,545
2018-08-17T11:45:43.693Z,550
2018-08-17T11:46:53.275Z,655
2018-08-17T11:48:02.850Z,815
2018-08-17T11:49:12.428Z,805
2018-08-17T11:50:22.016Z,825
2018-08-17T11:51:31.920Z,680
2018-08-17T11:52:41.799Z,650
2018-08-17T11:53:52.083Z,575
2018-08-17T11:55:01.681Z,525
2018-08-17T11:56:10.996Z,465
2018-08-17T11:57:20.575Z,520
2018-08-17T11:58:30.424Z,470
2018-08-17T11:59:40.541Z,545
2018-08-17T12:00:50.384Z,575
2018-08-17T12:02:01.069Z,520
2018-08-17T12:03:10.945Z,505
2018-08-17T12:04:20.531Z,460
2018-08-17T12:05:30.381Z,380
2018-08-17T12:06:40.246Z,370
2018-08-17T12:07:49.822Z,345
2018-08-17T12:08:59.405Z,315
2018-08-17T12:10:09.257Z,290
2018-08-17T12:11:19.105Z,235
2018-08-17T12:12:28.412Z,205
2018-08-17T12:13:37.721Z,230
2018-08-17T12:14:47.621Z,260
2018-08-17T12:15:57.472Z,310
2018-08-17T12:17:07.046Z,445
2018-08-17T12:18:16.889Z,520
2018-08-17T12:19:26.206Z,520
2018-08-17T12:20:35.791Z,535
2018-08-17T12:21:45.101Z,475
2018-08-17T12:22:54.960Z,425
2018-08-17T12:24:04.827Z,435
2018-08-17T12:25:14.722Z,485
2018-08-17T12:26:24.847Z,565
2018-08-17T12:27:34.695Z,635
2018-08-17T12:28:44.549Z,620
2018-08-17T12:29:54.390Z,620
2018-08-17T12:31:04.602Z,615
2018-08-17T12:32:14.472Z,620
2018-08-17T12:33:24.157Z,590
2018-08-17T12:34:34.000Z,555
2018-08-17T12:35:43.846Z,480
2018-08-17T12:36:53.163Z,380
2018-08-17T12:38:02.473Z,370
2018-08-17T12:39:12.045Z,350
2018-08-17T12:40:22.442Z,355
2018-08-17T12:41:32.038Z,370
2018-08-17T12:42:41.632Z,365
2018-08-17T12:43:50.996Z,345
2018-08-17T12:45:00.840Z,340
2018-08-17T12:46:10.987Z,340
2018-08-17T12:47:21.109Z,365
2018-08-17T12:48:30.957Z,440
2018-08-17T12:49:41.136Z,485
2018-08-17T12:50:50.447Z,490
2018-08-17T12:52:00.303Z,490
2018-08-17T12:53:10.416Z,480
2018-08-17T12:54:19.730Z,440
2018-08-17T12:55:29.623Z,410
2018-08-17T12:56:39.747Z,400
2018-08-17T12:57:49.595Z,410
2018-08-17T12:58:59.178Z,405
2018-08-17T13:00:08.485Z,435
2018-08-17T13:01:17.524Z,425
2018-08-17T13:02:27.648Z,390
2018-08-17T13:03:36.956Z,385
2018-08-17T13:04:47.080Z,390
2018-08-17T13:05:56.931Z,385
2018-08-17T13:07:06.787Z,400
2018-08-17T13:08:16.907Z,345
2018-08-17T13:09:26.761Z,240
2018-08-17T13:10:36.607Z,180
2018-08-17T13:11:46.183Z,150
2018-08-17T13:12:55.562Z,150
2018-08-17T13:14:05.203Z,140
2018-08-17T13:15:15.053Z,125
2018-08-17T13:16:24.364Z,125
2018-08-17T13:17:34.393Z,130
2018-08-17T13:18:44.235Z,145
2018-08-17T13:19:54.357Z,160
2018-08-17T13:21:03.936Z,175
2018-08-17T13:22:13.268Z,200
2018-08-17T13:23:22.844Z,235
2018-08-17T13:24:32.421Z,270
2018-08-17T13:25:42.542Z,320
2018-08-17T13:26:52.113Z,385
2018-08-17T13:28:01.693Z,420
2018-08-17T13:29:11.552Z,460
2018-08-17T13:30:21.449Z,490
2018-08-17T13:31:30.752Z,530
2018-08-17T13:32:40.329Z,545
2018-08-17T13:33:49.907Z,545
2018-08-17T13:35:00.042Z,590
2018-08-17T13:36:10.180Z,610
2018-08-17T13:37:20.386Z,645
2018-08-17T13:38:29.963Z,615
2018-08-17T13:39:40.086Z,525
2018-08-17T13:40:49.662Z,475
2018-08-17T13:41:59.016Z,485
2018-08-17T13:43:08.617Z,485
2018-08-17T13:44:18.736Z,480
2018-08-17T13:45:27.776Z,445
2018-08-17T13:46:37.354Z,380
2018-08-17T13:47:46.394Z,355
2018-08-17T13:48:56.000Z,385
2018-08-17T13:50:05.599Z,455
2018-08-17T13:51:14.910Z,460
2018-08-17T13:52:24.760Z,470
2018-08-17T13:53:34.345Z,560
2018-08-17T13:54:43.919Z,585
2018-08-17T13:55:53.228Z,490
2018-08-17T13:57:02.812Z,395
2018-08-17T13:58:12.655Z,355
2018-08-17T13:59:22.503Z,340
2018-08-17T14:00:32.155Z,355
2018-08-17T14:01:42.004Z,395
2018-08-17T14:02:51.851Z,415
2018-08-17T14:04:01.161Z,460
2018-08-17T14:05:11.012Z,545
2018-08-17T14:06:20.584Z,605
2018-08-17T14:07:30.169Z,630
2018-08-17T14:08:40.019Z,665
2018-08-17T14:09:49.602Z,755
2018-08-17T14:10:59.452Z,880
2018-08-17T14:12:08.769Z,905
2018-08-17T14:13:18.355Z,950
2018-08-17T14:14:27.932Z,890
2018-08-17T14:15:37.951Z,860
2018-08-17T14:16:47.320Z,865
2018-08-17T14:17:57.168Z,845
2018-08-17T14:19:07.029Z,1175
2018-08-17T14:20:16.611Z,970
2018-08-17T14:21:25.920Z,945
2018-08-17T14:22:35.872Z,965
2018-08-17T14:23:45.719Z,930
2018-08-17T14:24:55.565Z,960
2018-08-17T14:26:05.146Z,990
2018-08-17T14:27:14.459Z,925
2018-08-17T14:28:24.038Z,860
2018-08-17T14:29:33.351Z,875
2018-08-17T14:30:43.221Z,930
2018-08-17T14:31:53.091Z,1035
2018-08-17T14:33:02.938Z,1055
2018-08-17T14:34:12.899Z,1020
2018-08-17T14:35:23.313Z,1040
2018-08-17T14:36:33.192Z,1150
2018-08-17T14:37:43.043Z,1550
2018-08-17T14:38:52.901Z,2810
2018-08-17T14:40:02.490Z,2255
2018-08-17T14:41:12.604Z,1720
2018-08-17T14:42:22.728Z,1875
2018-08-17T14:43:32.845Z,1455
2018-08-17T14:44:42.428Z,1635
2018-08-17T14:45:52.027Z,2325
2018-08-17T14:47:01.064Z,2805
2018-08-17T14:48:10.665Z,3810
2018-08-17T14:49:20.523Z,3380
2018-08-17T14:50:30.382Z,3235
2018-08-17T14:51:40.292Z,3390
2018-08-17T14:52:50.210Z,3820
2018-08-17T14:54:00.068Z,3525
2018-08-17T14:55:09.922Z,3505
2018-08-17T14:56:19.779Z,3530
2018-08-17T14:57:29.644Z,720
2018-08-17T14:58:39.550Z,540
2018-08-17T14:59:49.448Z,490
2018-08-17T15:00:59.359Z,495
2018-08-17T15:02:09.286Z,570
2018-08-17T15:03:19.414Z,3080
2018-08-17T15:04:29.010Z,3370
2018-08-17T15:05:38.598Z,620
2018-08-17T15:06:47.927Z,540
2018-08-17T15:07:57.437Z,550
2018-08-17T15:09:07.024Z,685
2018-08-17T15:10:16.880Z,850
2018-08-17T15:11:26.467Z,1275
2018-08-17T15:12:35.822Z,3095
2018-08-17T15:13:46.003Z,3265
2018-08-17T15:14:55.592Z,3210
2018-08-17T15:16:05.179Z,3180
2018-08-17T15:17:15.034Z,3250
2018-08-17T15:18:24.626Z,3165
2018-08-17T15:19:34.213Z,3030
2018-08-17T15:20:44.066Z,3020
2018-08-17T15:21:53.385Z,2985
2018-08-17T15:23:02.978Z,3100
2018-08-17T15:24:12.830Z,3330
2018-08-17T15:25:22.698Z,3200
2018-08-17T15:26:32.942Z,3275
2018-08-17T15:27:42.607Z,3165
2018-08-17T15:28:52.449Z,3310
2018-08-17T15:30:02.305Z,3295
2018-08-17T15:31:12.427Z,3260
2018-08-17T15:32:22.015Z,3215
2018-08-17T15:33:31.875Z,3330
2018-08-17T15:34:41.463Z,3235
2018-08-17T15:35:51.590Z,3155
2018-08-17T15:37:01.454Z,3080
2018-08-17T15:38:10.777Z,3065
2018-08-17T15:39:20.634Z,3030
2018-08-17T15:40:30.228Z,3075
2018-08-17T15:41:40.100Z,3220
2018-08-17T15:42:49.958Z,3055
2018-08-17T15:43:59.828Z,3095
2018-08-17T15:45:09.717Z,3125
2018-08-17T15:46:20.014Z,3090
2018-08-17T15:47:29.682Z,3125
2018-08-17T15:48:39.001Z,3110
2018-08-17T15:49:48.600Z,3020
2018-08-17T15:50:58.469Z,3040
2018-08-17T15:52:08.877Z,3145
2018-08-17T15:53:18.781Z,3025
2018-08-17T15:54:28.651Z,3025
2018-08-17T15:55:38.518Z,3110
2018-08-17T15:56:48.383Z,3080
2018-08-17T15:57:58.339Z,2940
2018-08-17T15:59:08.498Z,2935
2018-08-17T16:00:18.645Z,2970
2018-08-17T16:01:29.003Z,2930
2018-08-17T16:02:38.643Z,2930
2018-08-17T16:03:48.794Z,3020
2018-08-17T16:04:58.123Z,3030
2018-08-17T16:06:07.986Z,2830
2018-08-17T16:07:18.118Z,2875
2018-08-17T16:08:28.684Z,2835
2018-08-17T16:09:38.298Z,2820
2018-08-17T16:10:47.891Z,2745
2018-08-17T16:11:57.211Z,2640
2018-08-17T16:13:07.074Z,2665
2018-08-17T16:14:16.400Z,2725
2018-08-17T16:15:26.260Z,2870
2018-08-17T16:16:35.661Z,2830